sensor_id;sensor_type;location;lat;lon;timestamp;pressure;altitude;pressure_sealevel;temperature;humidity
18022;BME280;9136;48.822;7.966;2022-10-16T00:01:17;100017.28;;;15.34;100.00
18022;BME280;9136;48.822;7.966;2022-10-16T00:04:05;100016.53;;;15.32;100.00
18022;BME280;9136;48.822;7.966;2022-10-16T00:06:53;100013.22;;;15.28;100.00
18022;BME280;9136;48.822;7.966;2022-10-16T00:09:40;100036.25;;;15.42;100.00
18022;BME280;9136;48.822;7.966;2022-10-16T00:12:28;100033.88;;;15.37;100.00
18022;BME280;9136;48.822;7.966;2022-10-16T00:15:16;100030.28;;;15.38;100.00
18022;BME280;9136;48.822;7.966;2022-10-16T00:18:08;100028.72;;;15.34;100.00
18022;BME280;9136;48.822;7.966;2022-10-16T00:21:01;100009.88;;;15.25;100.00
18022;BME280;9136;48.822;7.966;2022-10-16T00:23:51;100012.28;;;15.29;100.00
18022;BME280;9136;48.822;7.966;2022-10-16T00:26:39;99998.59;;;15.21;100.00
18022;BME280;9136;48.822;7.966;2022-10-16T00:29:27;100015.78;;;15.30;100.00
18022;BME280;9136;48.822;7.966;2022-10-16T00:32:14;100014.59;;;15.35;100.00
18022;BME280;9136;48.822;7.966;2022-10-16T00:35:04;100021.16;;;15.28;100.00
18022;BME280;9136;48.822;7.966;2022-10-16T00:37:52;100042.22;;;15.30;100.00
18022;BME280;9136;48.822;7.966;2022-10-16T00:40:40;100037.88;;;15.29;100.00
18022;BME280;9136;48.822;7.966;2022-10-16T00:43:38;100016.94;;;15.24;100.00
18022;BME280;9136;48.822;7.966;2022-10-16T00:46:29;100045.41;;;15.36;100.00
18022;BME280;9136;48.822;7.966;2022-10-16T00:49:19;100037.19;;;15.41;100.00
18022;BME280;9136;48.822;7.966;2022-10-16T00:52:10;100035.94;;;15.48;100.00
18022;BME280;9136;48.822;7.966;2022-10-16T00:54:58;100007.75;;;15.31;100.00
18022;BME280;9136;48.822;7.966;2022-10-16T00:57:48;100040.97;;;15.37;100.00
18022;BME280;9136;48.822;7.966;2022-10-16T01:00:36;100030.78;;;15.29;100.00
18022;BME280;9136;48.822;7.966;2022-10-16T01:03:27;100047.69;;;15.42;100.00
18022;BME280;9136;48.822;7.966;2022-10-16T01:06:22;100045.22;;;15.39;100.00
18022;BME280;9136;48.822;7.966;2022-10-16T01:09:16;100035.91;;;15.32;100.00
18022;BME280;9136;48.822;7.966;2022-10-16T01:12:10;100035.16;;;15.30;100.00
18022;BME280;9136;48.822;7.966;2022-10-16T01:15:06;100061.03;;;15.41;100.00
18022;BME280;9136;48.822;7.966;2022-10-16T01:18:00;100050.63;;;15.38;100.00
18022;BME280;9136;48.822;7.966;2022-10-16T01:20:51;100046.25;;;15.37;100.00
18022;BME280;9136;48.822;7.966;2022-10-16T01:23:48;100027.97;;;15.32;100.00
18022;BME280;9136;48.822;7.966;2022-10-16T01:27:04;100030.53;;;15.34;100.00
18022;BME280;9136;48.822;7.966;2022-10-16T01:29:54;100040.00;;;15.54;100.00
18022;BME280;9136;48.822;7.966;2022-10-16T01:32:48;100040.56;;;15.60;100.00
18022;BME280;9136;48.822;7.966;2022-10-16T01:35:40;100019.53;;;15.41;100.00
18022;BME280;9136;48.822;7.966;2022-10-16T01:38:33;100018.66;;;15.41;100.00
18022;BME280;9136;48.822;7.966;2022-10-16T01:41:25;100036.25;;;15.58;100.00
18022;BME280;9136;48.822;7.966;2022-10-16T01:44:20;100028.06;;;15.46;100.00
18022;BME280;9136;48.822;7.966;2022-10-16T01:47:10;100039.50;;;15.47;100.00
18022;BME280;9136;48.822;7.966;2022-10-16T01:50:02;100023.19;;;15.23;100.00
18022;BME280;9136;48.822;7.966;2022-10-16T01:52:52;100030.34;;;15.21;100.00
18022;BME280;9136;48.822;7.966;2022-10-16T01:55:44;100030.44;;;15.20;100.00
18022;BME280;9136;48.822;7.966;2022-10-16T01:58:34;100059.66;;;15.34;100.00
18022;BME280;9136;48.822;7.966;2022-10-16T02:01:27;100061.19;;;15.38;100.00
18022;BME280;9136;48.822;7.966;2022-10-16T02:04:21;100058.72;;;15.35;100.00
18022;BME280;9136;48.822;7.966;2022-10-16T02:07:11;100039.91;;;15.24;100.00
18022;BME280;9136;48.822;7.966;2022-10-16T02:10:00;100047.44;;;15.31;100.00
18022;BME280;9136;48.822;7.966;2022-10-16T02:12:50;100040.13;;;15.36;100.00
18022;BME280;9136;48.822;7.966;2022-10-16T02:15:41;100019.34;;;15.29;100.00
18022;BME280;9136;48.822;7.966;2022-10-16T02:18:31;100034.81;;;15.36;100.00
18022;BME280;9136;48.822;7.966;2022-10-16T02:21:23;100043.75;;;15.34;100.00
18022;BME280;9136;48.822;7.966;2022-10-16T02:24:19;100046.84;;;15.26;100.00
18022;BME280;9136;48.822;7.966;2022-10-16T02:27:14;100060.31;;;15.22;100.00
18022;BME280;9136;48.822;7.966;2022-10-16T02:30:07;100034.94;;;15.02;100.00
18022;BME280;9136;48.822;7.966;2022-10-16T02:32:58;100047.09;;;15.06;100.00
18022;BME280;9136;48.822;7.966;2022-10-16T02:35:50;100067.13;;;15.10;100.00
18022;BME280;9136;48.822;7.966;2022-10-16T02:38:39;100040.50;;;14.97;100.00
18022;BME280;9136;48.822;7.966;2022-10-16T02:41:27;100044.50;;;15.04;100.00
18022;BME280;9136;48.822;7.966;2022-10-16T02:44:15;100055.78;;;15.08;100.00
18022;BME280;9136;48.822;7.966;2022-10-16T02:47:03;100044.31;;;14.92;100.00
18022;BME280;9136;48.822;7.966;2022-10-16T02:49:53;100055.25;;;15.01;100.00
18022;BME280;9136;48.822;7.966;2022-10-16T02:52:42;100049.78;;;14.88;100.00
18022;BME280;9136;48.822;7.966;2022-10-16T02:55:30;100050.03;;;15.00;100.00
18022;BME280;9136;48.822;7.966;2022-10-16T02:58:18;100060.63;;;15.00;100.00
18022;BME280;9136;48.822;7.966;2022-10-16T03:01:06;100057.31;;;14.96;100.00
18022;BME280;9136;48.822;7.966;2022-10-16T03:03:54;100059.50;;;14.88;100.00
18022;BME280;9136;48.822;7.966;2022-10-16T03:06:42;100070.53;;;14.96;100.00
18022;BME280;9136;48.822;7.966;2022-10-16T03:09:31;100037.81;;;14.81;100.00
18022;BME280;9136;48.822;7.966;2022-10-16T03:12:19;100055.28;;;14.84;100.00
18022;BME280;9136;48.822;7.966;2022-10-16T03:15:08;100037.25;;;14.75;100.00
18022;BME280;9136;48.822;7.966;2022-10-16T03:17:59;100067.75;;;14.82;100.00
18022;BME280;9136;48.822;7.966;2022-10-16T03:20:47;100049.81;;;14.71;100.00
18022;BME280;9136;48.822;7.966;2022-10-16T03:23:35;100071.41;;;14.79;100.00
18022;BME280;9136;48.822;7.966;2022-10-16T03:26:24;100063.47;;;14.79;100.00
18022;BME280;9136;48.822;7.966;2022-10-16T03:29:12;100046.09;;;14.58;100.00
18022;BME280;9136;48.822;7.966;2022-10-16T03:32:00;100078.97;;;14.70;100.00
18022;BME280;9136;48.822;7.966;2022-10-16T03:34:47;100066.91;;;14.64;100.00
18022;BME280;9136;48.822;7.966;2022-10-16T03:37:35;100044.88;;;14.48;100.00
18022;BME280;9136;48.822;7.966;2022-10-16T03:40:23;100057.75;;;14.54;100.00
18022;BME280;9136;48.822;7.966;2022-10-16T03:43:12;100056.34;;;14.47;100.00
18022;BME280;9136;48.822;7.966;2022-10-16T03:46:00;100056.44;;;14.45;100.00
18022;BME280;9136;48.822;7.966;2022-10-16T03:48:48;100056.56;;;14.42;100.00
18022;BME280;9136;48.822;7.966;2022-10-16T03:51:36;100053.38;;;14.36;100.00
18022;BME280;9136;48.822;7.966;2022-10-16T03:54:24;100060.72;;;14.48;100.00
18022;BME280;9136;48.822;7.966;2022-10-16T03:57:11;100051.34;;;14.41;100.00
18022;BME280;9136;48.822;7.966;2022-10-16T04:00:01;100075.47;;;14.52;100.00
18022;BME280;9136;48.822;7.966;2022-10-16T04:02:48;100056.72;;;14.39;100.00
18022;BME280;9136;48.822;7.966;2022-10-16T04:05:36;100058.34;;;14.42;100.00
18022;BME280;9136;48.822;7.966;2022-10-16T04:08:24;100075.47;;;14.52;100.00
18022;BME280;9136;48.822;7.966;2022-10-16T04:11:12;100076.25;;;14.54;100.00
18022;BME280;9136;48.822;7.966;2022-10-16T04:14:00;100065.84;;;14.51;100.00
18022;BME280;9136;48.822;7.966;2022-10-16T04:16:49;100076.09;;;14.57;100.00
18022;BME280;9136;48.822;7.966;2022-10-16T04:19:37;100079.34;;;14.62;100.00
18022;BME280;9136;48.822;7.966;2022-10-16T04:22:25;100109.50;;;14.75;100.00
18022;BME280;9136;48.822;7.966;2022-10-16T04:25:13;100106.09;;;14.73;100.00
18022;BME280;9136;48.822;7.966;2022-10-16T04:28:01;100070.09;;;14.53;100.00
18022;BME280;9136;48.822;7.966;2022-10-16T04:30:48;100095.78;;;14.69;100.00
18022;BME280;9136;48.822;7.966;2022-10-16T04:33:38;100081.16;;;14.62;100.00
18022;BME280;9136;48.822;7.966;2022-10-16T04:36:26;100096.63;;;14.69;100.00
18022;BME280;9136;48.822;7.966;2022-10-16T04:39:13;100110.78;;;14.68;100.00
18022;BME280;9136;48.822;7.966;2022-10-16T04:42:01;100107.13;;;14.71;100.00
18022;BME280;9136;48.822;7.966;2022-10-16T04:44:49;100116.50;;;14.76;100.00
18022;BME280;9136;48.822;7.966;2022-10-16T04:47:37;100109.38;;;14.78;100.00
18022;BME280;9136;48.822;7.966;2022-10-16T04:50:26;100129.41;;;14.82;100.00
18022;BME280;9136;48.822;7.966;2022-10-16T04:53:14;100110.53;;;14.73;100.00
18022;BME280;9136;48.822;7.966;2022-10-16T04:56:02;100107.28;;;14.68;100.00
18022;BME280;9136;48.822;7.966;2022-10-16T04:58:50;100110.91;;;14.65;100.00
18022;BME280;9136;48.822;7.966;2022-10-16T05:01:37;100103.31;;;14.59;100.00
18022;BME280;9136;48.822;7.966;2022-10-16T05:04:25;100104.94;;;14.62;100.00
18022;BME280;9136;48.822;7.966;2022-10-16T05:07:15;100126.41;;;14.73;100.00
18022;BME280;9136;48.822;7.966;2022-10-16T05:10:03;100109.53;;;14.58;100.00
18022;BME280;9136;48.822;7.966;2022-10-16T05:12:51;100113.91;;;14.59;100.00
18022;BME280;9136;48.822;7.966;2022-10-16T05:15:39;100119.47;;;14.53;100.00
18022;BME280;9136;48.822;7.966;2022-10-16T05:18:26;100114.13;;;14.54;100.00
18022;BME280;9136;48.822;7.966;2022-10-16T05:21:14;100107.53;;;14.44;100.00
18022;BME280;9136;48.822;7.966;2022-10-16T05:24:04;100127.88;;;14.61;100.00
18022;BME280;9136;48.822;7.966;2022-10-16T05:26:52;100095.09;;;14.48;100.00
18022;BME280;9136;48.822;7.966;2022-10-16T05:29:40;100111.25;;;14.59;100.00
18022;BME280;9136;48.822;7.966;2022-10-16T05:32:27;100114.03;;;14.56;100.00
18022;BME280;9136;48.822;7.966;2022-10-16T05:35:16;100118.53;;;14.54;100.00
18022;BME280;9136;48.822;7.966;2022-10-16T05:38:04;100097.06;;;14.43;100.00
18022;BME280;9136;48.822;7.966;2022-10-16T05:40:53;100114.63;;;14.44;100.00
18022;BME280;9136;48.822;7.966;2022-10-16T05:43:42;100130.56;;;14.42;100.00
18022;BME280;9136;48.822;7.966;2022-10-16T05:46:30;100133.06;;;14.45;100.00
18022;BME280;9136;48.822;7.966;2022-10-16T05:49:20;100138.22;;;14.48;100.00
18022;BME280;9136;48.822;7.966;2022-10-16T05:52:07;100123.09;;;14.33;100.00
18022;BME280;9136;48.822;7.966;2022-10-16T05:54:55;100140.03;;;14.48;100.00
18022;BME280;9136;48.822;7.966;2022-10-16T05:57:45;100147.63;;;14.54;100.00
18022;BME280;9136;48.822;7.966;2022-10-16T06:00:32;100149.88;;;14.62;100.00
18022;BME280;9136;48.822;7.966;2022-10-16T06:03:20;100121.78;;;14.42;100.00
18022;BME280;9136;48.822;7.966;2022-10-16T06:06:09;100125.00;;;14.48;100.00
18022;BME280;9136;48.822;7.966;2022-10-16T06:08:59;100115.84;;;14.37;100.00
18022;BME280;9136;48.822;7.966;2022-10-16T06:11:47;100155.88;;;14.48;100.00
18022;BME280;9136;48.822;7.966;2022-10-16T06:14:36;100151.44;;;14.48;100.00
18022;BME280;9136;48.822;7.966;2022-10-16T06:17:24;100145.47;;;14.43;100.00
18022;BME280;9136;48.822;7.966;2022-10-16T06:20:12;100146.94;;;14.50;100.00
18022;BME280;9136;48.822;7.966;2022-10-16T06:23:00;100162.16;;;14.63;100.00
18022;BME280;9136;48.822;7.966;2022-10-16T06:25:48;100148.47;;;14.54;100.00
18022;BME280;9136;48.822;7.966;2022-10-16T06:28:36;100150.44;;;14.68;100.00
18022;BME280;9136;48.822;7.966;2022-10-16T06:31:26;100146.69;;;14.72;100.00
18022;BME280;9136;48.822;7.966;2022-10-16T06:34:17;100151.81;;;14.75;100.00
18022;BME280;9136;48.822;7.966;2022-10-16T06:37:05;100143.84;;;14.77;100.00
18022;BME280;9136;48.822;7.966;2022-10-16T06:39:53;100163.63;;;14.85;100.00
18022;BME280;9136;48.822;7.966;2022-10-16T06:42:41;100149.97;;;14.77;100.00
18022;BME280;9136;48.822;7.966;2022-10-16T06:45:29;100180.13;;;14.91;100.00
18022;BME280;9136;48.822;7.966;2022-10-16T06:48:18;100165.38;;;14.86;100.00
18022;BME280;9136;48.822;7.966;2022-10-16T06:51:09;100172.13;;;15.09;100.00
18022;BME280;9136;48.822;7.966;2022-10-16T06:53:57;100169.66;;;15.22;100.00
18022;BME280;9136;48.822;7.966;2022-10-16T06:56:45;100173.53;;;15.32;100.00
18022;BME280;9136;48.822;7.966;2022-10-16T06:59:33;100176.28;;;15.31;100.00
18022;BME280;9136;48.822;7.966;2022-10-16T07:02:20;100186.63;;;15.35;100.00
18022;BME280;9136;48.822;7.966;2022-10-16T07:05:10;100172.28;;;15.39;100.00
18022;BME280;9136;48.822;7.966;2022-10-16T07:07:57;100193.06;;;15.47;100.00
18022;BME280;9136;48.822;7.966;2022-10-16T07:10:46;100209.22;;;15.58;100.00
18022;BME280;9136;48.822;7.966;2022-10-16T07:13:34;100217.56;;;15.68;100.00
18022;BME280;9136;48.822;7.966;2022-10-16T07:16:24;100195.44;;;15.52;100.00
18022;BME280;9136;48.822;7.966;2022-10-16T07:19:13;100205.44;;;15.64;100.00
18022;BME280;9136;48.822;7.966;2022-10-16T07:22:03;100229.53;;;15.75;100.00
18022;BME280;9136;48.822;7.966;2022-10-16T07:24:51;100219.53;;;15.80;100.00
18022;BME280;9136;48.822;7.966;2022-10-16T07:27:38;100240.00;;;15.94;100.00
18022;BME280;9136;48.822;7.966;2022-10-16T07:30:26;100234.34;;;15.84;100.00
18022;BME280;9136;48.822;7.966;2022-10-16T07:33:14;100250.25;;;15.84;100.00
18022;BME280;9136;48.822;7.966;2022-10-16T07:36:02;100227.94;;;15.88;100.00
18022;BME280;9136;48.822;7.966;2022-10-16T07:38:52;100247.41;;;15.87;100.00
18022;BME280;9136;48.822;7.966;2022-10-16T07:41:39;100261.78;;;15.99;100.00
18022;BME280;9136;48.822;7.966;2022-10-16T07:44:27;100264.78;;;15.93;100.00
18022;BME280;9136;48.822;7.966;2022-10-16T07:47:24;100265.28;;;15.99;100.00
18022;BME280;9136;48.822;7.966;2022-10-16T07:50:12;100267.53;;;16.07;100.00
18022;BME280;9136;48.822;7.966;2022-10-16T07:53:00;100248.53;;;15.99;100.00
18022;BME280;9136;48.822;7.966;2022-10-16T07:55:49;100270.25;;;16.06;100.00
18022;BME280;9136;48.822;7.966;2022-10-16T07:58:39;100249.84;;;16.08;100.00
18022;BME280;9136;48.822;7.966;2022-10-16T08:01:28;100246.69;;;16.17;100.00
18022;BME280;9136;48.822;7.966;2022-10-16T08:04:17;100253.25;;;16.25;100.00
18022;BME280;9136;48.822;7.966;2022-10-16T08:07:20;100241.13;;;16.21;100.00
18022;BME280;9136;48.822;7.966;2022-10-16T08:10:15;100250.00;;;16.52;100.00
18022;BME280;9136;48.822;7.966;2022-10-16T08:13:05;100238.28;;;16.72;100.00
18022;BME280;9136;48.822;7.966;2022-10-16T08:15:53;100232.94;;;16.87;100.00
18022;BME280;9136;48.822;7.966;2022-10-16T08:18:41;100249.66;;;17.04;100.00
18022;BME280;9136;48.822;7.966;2022-10-16T08:21:29;100269.47;;;17.28;100.00
18022;BME280;9136;48.822;7.966;2022-10-16T08:24:18;100257.06;;;17.29;100.00
18022;BME280;9136;48.822;7.966;2022-10-16T08:27:07;100262.91;;;17.20;100.00
18022;BME280;9136;48.822;7.966;2022-10-16T08:29:56;100261.16;;;17.04;100.00
18022;BME280;9136;48.822;7.966;2022-10-16T08:32:44;100282.06;;;17.25;100.00
18022;BME280;9136;48.822;7.966;2022-10-16T08:35:32;100284.56;;;17.28;100.00
18022;BME280;9136;48.822;7.966;2022-10-16T08:38:20;100268.97;;;17.22;100.00
18022;BME280;9136;48.822;7.966;2022-10-16T08:41:23;100274.09;;;17.25;100.00
18022;BME280;9136;48.822;7.966;2022-10-16T08:44:49;100287.97;;;17.30;100.00
18022;BME280;9136;48.822;7.966;2022-10-16T08:47:49;100289.28;;;17.37;100.00
18022;BME280;9136;48.822;7.966;2022-10-16T08:50:43;100299.56;;;17.43;100.00
18022;BME280;9136;48.822;7.966;2022-10-16T08:53:40;100318.44;;;17.83;100.00
18022;BME280;9136;48.822;7.966;2022-10-16T08:56:30;100332.19;;;17.89;100.00
18022;BME280;9136;48.822;7.966;2022-10-16T08:59:19;100340.56;;;18.12;100.00
18022;BME280;9136;48.822;7.966;2022-10-16T09:02:23;100333.53;;;18.11;100.00
18022;BME280;9136;48.822;7.966;2022-10-16T09:05:30;100314.66;;;17.87;100.00
18022;BME280;9136;48.822;7.966;2022-10-16T09:08:30;100324.03;;;17.92;100.00
18022;BME280;9136;48.822;7.966;2022-10-16T09:11:26;100343.50;;;18.07;100.00
18022;BME280;9136;48.822;7.966;2022-10-16T09:14:37;100324.44;;;18.15;100.00
18022;BME280;9136;48.822;7.966;2022-10-16T09:17:36;100340.72;;;18.23;100.00
18022;BME280;9136;48.822;7.966;2022-10-16T09:20:34;100330.69;;;18.28;100.00
18022;BME280;9136;48.822;7.966;2022-10-16T09:23:26;100345.69;;;18.43;100.00
18022;BME280;9136;48.822;7.966;2022-10-16T09:26:16;100344.53;;;18.47;100.00
18022;BME280;9136;48.822;7.966;2022-10-16T09:29:05;100342.47;;;18.24;100.00
18022;BME280;9136;48.822;7.966;2022-10-16T09:31:54;100334.94;;;18.30;100.00
18022;BME280;9136;48.822;7.966;2022-10-16T09:34:47;100347.16;;;18.62;100.00
18022;BME280;9136;48.822;7.966;2022-10-16T09:37:37;100343.09;;;18.56;100.00
18022;BME280;9136;48.822;7.966;2022-10-16T09:40:26;100351.91;;;18.56;100.00
18022;BME280;9136;48.822;7.966;2022-10-16T09:43:23;100352.84;;;18.84;100.00
18022;BME280;9136;48.822;7.966;2022-10-16T09:46:22;100350.84;;;18.87;100.00
18022;BME280;9136;48.822;7.966;2022-10-16T09:49:21;100368.75;;;18.98;100.00
18022;BME280;9136;48.822;7.966;2022-10-16T09:52:13;100365.66;;;18.92;100.00
18022;BME280;9136;48.822;7.966;2022-10-16T09:55:13;100369.75;;;19.10;100.00
18022;BME280;9136;48.822;7.966;2022-10-16T09:58:01;100346.25;;;19.16;100.00
18022;BME280;9136;48.822;7.966;2022-10-16T10:00:50;100370.22;;;19.16;100.00
18022;BME280;9136;48.822;7.966;2022-10-16T10:03:40;100369.38;;;19.16;100.00
18022;BME280;9136;48.822;7.966;2022-10-16T10:06:31;100380.47;;;19.23;100.00
18022;BME280;9136;48.822;7.966;2022-10-16T10:09:21;100392.84;;;19.24;100.00
18022;BME280;9136;48.822;7.966;2022-10-16T10:12:18;100380.00;;;19.43;100.00
18022;BME280;9136;48.822;7.966;2022-10-16T10:15:10;100376.94;;;19.89;100.00
18022;BME280;9136;48.822;7.966;2022-10-16T10:17:58;100373.72;;;20.22;100.00
18022;BME280;9136;48.822;7.966;2022-10-16T10:20:57;100385.88;;;20.00;100.00
18022;BME280;9136;48.822;7.966;2022-10-16T10:23:55;100400.06;;;19.88;100.00
18022;BME280;9136;48.822;7.966;2022-10-16T10:26:49;100394.00;;;20.37;100.00
18022;BME280;9136;48.822;7.966;2022-10-16T10:29:48;100382.03;;;20.05;100.00
18022;BME280;9136;48.822;7.966;2022-10-16T10:32:46;100383.31;;;20.37;100.00
18022;BME280;9136;48.822;7.966;2022-10-16T10:35:44;100406.13;;;20.41;100.00
18022;BME280;9136;48.822;7.966;2022-10-16T10:38:41;100408.38;;;20.35;100.00
18022;BME280;9136;48.822;7.966;2022-10-16T10:42:09;100387.06;;;20.09;100.00
18022;BME280;9136;48.822;7.966;2022-10-16T10:45:16;100375.53;;;20.09;100.00
18022;BME280;9136;48.822;7.966;2022-10-16T10:48:24;100388.94;;;20.71;100.00
18022;BME280;9136;48.822;7.966;2022-10-16T10:55:31;100400.19;;;22.51;100.00
18022;BME280;9136;48.822;7.966;2022-10-16T10:59:25;100373.34;;;23.07;100.00
18022;BME280;9136;48.822;7.966;2022-10-16T11:06:20;100376.16;;;22.95;95.94
18022;BME280;9136;48.822;7.966;2022-10-16T11:09:41;100385.84;;;22.41;100.00
18022;BME280;9136;48.822;7.966;2022-10-16T11:13:17;100367.91;;;22.08;100.00
18022;BME280;9136;48.822;7.966;2022-10-16T11:16:39;100360.25;;;21.57;100.00
18022;BME280;9136;48.822;7.966;2022-10-16T11:19:44;100355.84;;;21.45;100.00
18022;BME280;9136;48.822;7.966;2022-10-16T11:22:56;100341.63;;;21.21;100.00
18022;BME280;9136;48.822;7.966;2022-10-16T11:25:48;100365.91;;;21.41;100.00
18022;BME280;9136;48.822;7.966;2022-10-16T11:28:43;100366.88;;;21.17;100.00
18022;BME280;9136;48.822;7.966;2022-10-16T11:31:47;100374.88;;;20.93;100.00
18022;BME280;9136;48.822;7.966;2022-10-16T11:34:42;100372.13;;;20.81;100.00
18022;BME280;9136;48.822;7.966;2022-10-16T11:37:39;100367.03;;;20.78;100.00
18022;BME280;9136;48.822;7.966;2022-10-16T11:40:32;100378.03;;;20.74;100.00
18022;BME280;9136;48.822;7.966;2022-10-16T11:43:26;100374.72;;;20.70;100.00
18022;BME280;9136;48.822;7.966;2022-10-16T11:46:20;100353.31;;;20.83;100.00
18022;BME280;9136;48.822;7.966;2022-10-16T11:49:14;100360.84;;;21.02;100.00
18022;BME280;9136;48.822;7.966;2022-10-16T11:52:16;100374.16;;;21.14;100.00
18022;BME280;9136;48.822;7.966;2022-10-16T11:55:21;100354.25;;;20.95;100.00
18022;BME280;9136;48.822;7.966;2022-10-16T12:04:13;100359.25;;;20.75;100.00
18022;BME280;9136;48.822;7.966;2022-10-16T12:05:24;100346.75;;;20.76;100.00
18022;BME280;9136;48.822;7.966;2022-10-16T12:08:26;100369.44;;;20.94;100.00
18022;BME280;9136;48.822;7.966;2022-10-16T12:11:31;100350.66;;;20.83;100.00
18022;BME280;9136;48.822;7.966;2022-10-16T12:14:38;100343.84;;;21.03;100.00
18022;BME280;9136;48.822;7.966;2022-10-16T12:17:34;100338.63;;;21.01;100.00
18022;BME280;9136;48.822;7.966;2022-10-16T12:20:32;100362.47;;;20.92;100.00
18022;BME280;9136;48.822;7.966;2022-10-16T12:23:22;100343.84;;;20.79;100.00
18022;BME280;9136;48.822;7.966;2022-10-16T12:26:26;100358.97;;;20.91;100.00
18022;BME280;9136;48.822;7.966;2022-10-16T12:29:26;100352.88;;;20.89;100.00
18022;BME280;9136;48.822;7.966;2022-10-16T12:32:28;100353.97;;;20.86;100.00
18022;BME280;9136;48.822;7.966;2022-10-16T12:35:21;100366.13;;;20.91;100.00
18022;BME280;9136;48.822;7.966;2022-10-16T12:38:16;100358.09;;;20.67;100.00
18022;BME280;9136;48.822;7.966;2022-10-16T12:41:06;100340.38;;;20.66;100.00
18022;BME280;9136;48.822;7.966;2022-10-16T12:43:54;100365.88;;;20.70;100.00
18022;BME280;9136;48.822;7.966;2022-10-16T12:46:42;100327.41;;;20.23;100.00
18022;BME280;9136;48.822;7.966;2022-10-16T12:49:36;100358.03;;;20.30;100.00
18022;BME280;9136;48.822;7.966;2022-10-16T12:52:28;100354.06;;;20.23;100.00
18022;BME280;9136;48.822;7.966;2022-10-16T12:55:19;100355.47;;;20.28;100.00
18022;BME280;9136;48.822;7.966;2022-10-16T12:58:21;100326.22;;;20.14;100.00
18022;BME280;9136;48.822;7.966;2022-10-16T13:01:34;100337.75;;;20.15;100.00
18022;BME280;9136;48.822;7.966;2022-10-16T13:04:43;100344.28;;;20.11;100.00
18022;BME280;9136;48.822;7.966;2022-10-16T13:07:44;100316.56;;;20.00;100.00
18022;BME280;9136;48.822;7.966;2022-10-16T13:10:41;100331.69;;;20.13;100.00
18022;BME280;9136;48.822;7.966;2022-10-16T13:17:06;100327.31;;;20.12;100.00
18022;BME280;9136;48.822;7.966;2022-10-16T13:20:05;100328.03;;;20.26;100.00
18022;BME280;9136;48.822;7.966;2022-10-16T13:23:09;100312.50;;;20.08;100.00
18022;BME280;9136;48.822;7.966;2022-10-16T13:26:12;100329.34;;;20.21;100.00
18022;BME280;9136;48.822;7.966;2022-10-16T13:29:04;100348.44;;;20.27;100.00
18022;BME280;9136;48.822;7.966;2022-10-16T13:31:51;100328.91;;;20.14;100.00
18022;BME280;9136;48.822;7.966;2022-10-16T13:34:44;100339.22;;;20.32;100.00
18022;BME280;9136;48.822;7.966;2022-10-16T13:37:40;100320.56;;;20.32;100.00
18022;BME280;9136;48.822;7.966;2022-10-16T13:40:28;100345.72;;;20.66;100.00
18022;BME280;9136;48.822;7.966;2022-10-16T13:43:20;100347.47;;;21.02;100.00
18022;BME280;9136;48.822;7.966;2022-10-16T13:46:13;100335.09;;;21.60;100.00
18022;BME280;9136;48.822;7.966;2022-10-16T13:49:03;100341.00;;;21.98;100.00
18022;BME280;9136;48.822;7.966;2022-10-16T13:51:55;100347.38;;;22.53;100.00
18022;BME280;9136;48.822;7.966;2022-10-16T13:54:44;100322.53;;;23.17;100.00
18022;BME280;9136;48.822;7.966;2022-10-16T13:57:32;100331.28;;;23.19;100.00
18022;BME280;9136;48.822;7.966;2022-10-16T14:00:22;100331.38;;;23.50;100.00
18022;BME280;9136;48.822;7.966;2022-10-16T14:03:13;100329.47;;;23.40;100.00
18022;BME280;9136;48.822;7.966;2022-10-16T14:06:03;100351.63;;;23.42;100.00
18022;BME280;9136;48.822;7.966;2022-10-16T14:08:58;100342.56;;;23.02;100.00
18022;BME280;9136;48.822;7.966;2022-10-16T14:11:50;100335.03;;;22.73;100.00
18022;BME280;9136;48.822;7.966;2022-10-16T14:14:41;100342.94;;;22.86;100.00
18022;BME280;9136;48.822;7.966;2022-10-16T14:17:33;100326.88;;;22.86;100.00
18022;BME280;9136;48.822;7.966;2022-10-16T14:21:01;100322.25;;;22.77;100.00
18022;BME280;9136;48.822;7.966;2022-10-16T14:24:00;100323.47;;;22.84;100.00
18022;BME280;9136;48.822;7.966;2022-10-16T14:27:28;100338.78;;;22.93;100.00
18022;BME280;9136;48.822;7.966;2022-10-16T14:34:54;100345.50;;;22.76;100.00
18022;BME280;9136;48.822;7.966;2022-10-16T14:42:19;100331.78;;;21.91;100.00
18022;BME280;9136;48.822;7.966;2022-10-16T14:49:31;100336.56;;;22.10;100.00
18022;BME280;9136;48.822;7.966;2022-10-16T14:52:23;100332.06;;;22.33;100.00
18022;BME280;9136;48.822;7.966;2022-10-16T15:06:37;100313.94;;;22.14;100.00
18022;BME280;9136;48.822;7.966;2022-10-16T15:09:33;100352.13;;;22.16;100.00
18022;BME280;9136;48.822;7.966;2022-10-16T15:12:44;100350.81;;;22.22;100.00
18022;BME280;9136;48.822;7.966;2022-10-16T15:16:03;100337.41;;;22.33;100.00
18022;BME280;9136;48.822;7.966;2022-10-16T15:18:57;100349.47;;;22.50;100.00
18022;BME280;9136;48.822;7.966;2022-10-16T15:22:12;100344.84;;;22.30;100.00
18022;BME280;9136;48.822;7.966;2022-10-16T15:25:10;100324.88;;;22.45;100.00
18022;BME280;9136;48.822;7.966;2022-10-16T15:28:23;100326.66;;;22.67;100.00
18022;BME280;9136;48.822;7.966;2022-10-16T15:31:18;100331.03;;;22.68;100.00
18022;BME280;9136;48.822;7.966;2022-10-16T15:34:08;100335.56;;;22.56;100.00
18022;BME280;9136;48.822;7.966;2022-10-16T15:36:57;100328.78;;;22.30;100.00
18022;BME280;9136;48.822;7.966;2022-10-16T15:39:46;100332.41;;;22.17;100.00
18022;BME280;9136;48.822;7.966;2022-10-16T15:42:33;100335.19;;;21.93;100.00
18022;BME280;9136;48.822;7.966;2022-10-16T15:45:23;100332.44;;;21.60;100.00